sensor_id;sensor_type;location;lat;lon;timestamp;temperature;humidity
23618;DHT22;18207;32.078;34.818;2022-12-18T00:02:01;24.70;35.40
23618;DHT22;18207;32.078;34.818;2022-12-18T00:04:32;24.60;35.30
23618;DHT22;18207;32.078;34.818;2022-12-18T00:07:02;24.60;35.30
23618;DHT22;18207;32.078;34.818;2022-12-18T00:09:35;24.60;35.30
23618;DHT22;18207;32.078;34.818;2022-12-18T00:12:07;24.60;35.40
23618;DHT22;18207;32.078;34.818;2022-12-18T00:14:44;24.60;35.40
23618;DHT22;18207;32.078;34.818;2022-12-18T00:17:15;24.60;35.40
23618;DHT22;18207;32.078;34.818;2022-12-18T00:19:45;24.60;35.40
23618;DHT22;18207;32.078;34.818;2022-12-18T00:22:18;24.60;35.50
23618;DHT22;18207;32.078;34.818;2022-12-18T00:24:50;24.60;35.50
23618;DHT22;18207;32.078;34.818;2022-12-18T00:27:19;24.60;35.40
23618;DHT22;18207;32.078;34.818;2022-12-18T00:29:50;24.60;35.40
23618;DHT22;18207;32.078;34.818;2022-12-18T00:32:19;24.60;35.40
23618;DHT22;18207;32.078;34.818;2022-12-18T00:34:49;24.60;35.40
23618;DHT22;18207;32.078;34.818;2022-12-18T00:37:20;24.50;35.30
23618;DHT22;18207;32.078;34.818;2022-12-18T00:39:52;24.50;35.40
23618;DHT22;18207;32.078;34.818;2022-12-18T00:42:22;24.50;35.40
23618;DHT22;18207;32.078;34.818;2022-12-18T00:45:09;24.60;35.50
23618;DHT22;18207;32.078;34.818;2022-12-18T00:47:39;24.50;35.40
23618;DHT22;18207;32.078;34.818;2022-12-18T00:50:10;24.50;35.40
23618;DHT22;18207;32.078;34.818;2022-12-18T00:52:41;24.50;35.40
23618;DHT22;18207;32.078;34.818;2022-12-18T00:55:13;24.50;35.40
23618;DHT22;18207;32.078;34.818;2022-12-18T00:57:44;24.50;35.50
23618;DHT22;18207;32.078;34.818;2022-12-18T01:00:15;24.50;35.50
23618;DHT22;18207;32.078;34.818;2022-12-18T01:02:46;24.50;35.50
23618;DHT22;18207;32.078;34.818;2022-12-18T01:05:17;24.50;35.50
23618;DHT22;18207;32.078;34.818;2022-12-18T01:07:47;24.40;35.30
23618;DHT22;18207;32.078;34.818;2022-12-18T01:10:19;24.40;35.40
23618;DHT22;18207;32.078;34.818;2022-12-18T01:12:50;24.50;35.50
23618;DHT22;18207;32.078;34.818;2022-12-18T01:15:21;24.40;35.40
23618;DHT22;18207;32.078;34.818;2022-12-18T01:17:52;24.40;35.40
23618;DHT22;18207;32.078;34.818;2022-12-18T01:20:23;24.40;35.40
23618;DHT22;18207;32.078;34.818;2022-12-18T01:22:53;24.40;35.30
23618;DHT22;18207;32.078;34.818;2022-12-18T01:25:25;24.30;35.30
23618;DHT22;18207;32.078;34.818;2022-12-18T01:27:55;24.30;35.30
23618;DHT22;18207;32.078;34.818;2022-12-18T01:30:25;24.30;35.30
23618;DHT22;18207;32.078;34.818;2022-12-18T01:32:56;24.30;35.30
23618;DHT22;18207;32.078;34.818;2022-12-18T01:35:26;24.20;35.20
23618;DHT22;18207;32.078;34.818;2022-12-18T01:37:56;24.20;35.30
23618;DHT22;18207;32.078;34.818;2022-12-18T01:40:29;24.20;35.30
23618;DHT22;18207;32.078;34.818;2022-12-18T01:42:59;24.10;35.30
23618;DHT22;18207;32.078;34.818;2022-12-18T01:45:30;24.20;35.30
23618;DHT22;18207;32.078;34.818;2022-12-18T01:48:02;24.10;35.30
23618;DHT22;18207;32.078;34.818;2022-12-18T01:50:37;24.10;35.30
23618;DHT22;18207;32.078;34.818;2022-12-18T01:53:11;24.10;35.30
23618;DHT22;18207;32.078;34.818;2022-12-18T01:55:53;24.10;35.30
23618;DHT22;18207;32.078;34.818;2022-12-18T01:58:29;24.10;35.40
23618;DHT22;18207;32.078;34.818;2022-12-18T02:01:05;24.10;35.40
23618;DHT22;18207;32.078;34.818;2022-12-18T02:03:36;24.10;35.50
23618;DHT22;18207;32.078;34.818;2022-12-18T02:06:12;24.10;35.50
23618;DHT22;18207;32.078;34.818;2022-12-18T02:08:53;24.10;35.50
23618;DHT22;18207;32.078;34.818;2022-12-18T02:11:40;24.10;35.60
23618;DHT22;18207;32.078;34.818;2022-12-18T02:14:20;24.10;35.50
23618;DHT22;18207;32.078;34.818;2022-12-18T02:17:02;24.10;35.50
23618;DHT22;18207;32.078;34.818;2022-12-18T02:19:44;24.00;35.50
23618;DHT22;18207;32.078;34.818;2022-12-18T02:22:37;24.10;35.60
23618;DHT22;18207;32.078;34.818;2022-12-18T02:25:38;24.10;35.60
23618;DHT22;18207;32.078;34.818;2022-12-18T02:28:20;24.10;35.70
23618;DHT22;18207;32.078;34.818;2022-12-18T02:30:57;24.00;35.50
23618;DHT22;18207;32.078;34.818;2022-12-18T02:33:31;24.00;35.60
23618;DHT22;18207;32.078;34.818;2022-12-18T02:36:06;24.10;35.60
23618;DHT22;18207;32.078;34.818;2022-12-18T02:38:40;24.00;35.60
23618;DHT22;18207;32.078;34.818;2022-12-18T02:41:13;24.00;35.60
23618;DHT22;18207;32.078;34.818;2022-12-18T02:43:55;24.00;35.60
23618;DHT22;18207;32.078;34.818;2022-12-18T02:46:33;24.00;35.60
23618;DHT22;18207;32.078;34.818;2022-12-18T02:49:15;24.00;35.60
23618;DHT22;18207;32.078;34.818;2022-12-18T02:51:59;24.00;35.70
23618;DHT22;18207;32.078;34.818;2022-12-18T02:54:44;24.00;35.70
23618;DHT22;18207;32.078;34.818;2022-12-18T02:57:25;24.00;35.60
23618;DHT22;18207;32.078;34.818;2022-12-18T03:00:07;24.00;35.60
23618;DHT22;18207;32.078;34.818;2022-12-18T03:02:45;24.00;35.70
23618;DHT22;18207;32.078;34.818;2022-12-18T03:05:23;23.90;35.50
23618;DHT22;18207;32.078;34.818;2022-12-18T03:07:58;24.00;36.30
23618;DHT22;18207;32.078;34.818;2022-12-18T03:10:37;23.90;35.60
23618;DHT22;18207;32.078;34.818;2022-12-18T03:13:15;23.90;35.70
23618;DHT22;18207;32.078;34.818;2022-12-18T03:15:55;24.00;35.70
23618;DHT22;18207;32.078;34.818;2022-12-18T03:18:32;24.00;35.70
23618;DHT22;18207;32.078;34.818;2022-12-18T03:21:06;23.90;35.50
23618;DHT22;18207;32.078;34.818;2022-12-18T03:23:42;23.90;35.60
23618;DHT22;18207;32.078;34.818;2022-12-18T03:26:19;23.90;35.50
23618;DHT22;18207;32.078;34.818;2022-12-18T03:28:55;23.90;35.50
23618;DHT22;18207;32.078;34.818;2022-12-18T03:31:33;23.90;35.50
23618;DHT22;18207;32.078;34.818;2022-12-18T03:34:05;23.90;35.50
23618;DHT22;18207;32.078;34.818;2022-12-18T03:36:41;23.80;35.40
23618;DHT22;18207;32.078;34.818;2022-12-18T03:39:11;23.80;35.40
23618;DHT22;18207;32.078;34.818;2022-12-18T03:41:44;23.80;35.50
23618;DHT22;18207;32.078;34.818;2022-12-18T03:44:21;23.80;35.50
23618;DHT22;18207;32.078;34.818;2022-12-18T03:47:06;23.80;35.50
23618;DHT22;18207;32.078;34.818;2022-12-18T03:49:47;23.70;35.40
23618;DHT22;18207;32.078;34.818;2022-12-18T03:52:28;23.70;35.30
23618;DHT22;18207;32.078;34.818;2022-12-18T03:55:02;23.70;35.40
23618;DHT22;18207;32.078;34.818;2022-12-18T03:57:35;23.70;35.40
23618;DHT22;18207;32.078;34.818;2022-12-18T04:00:09;23.70;35.50
23618;DHT22;18207;32.078;34.818;2022-12-18T04:02:46;23.70;35.50
23618;DHT22;18207;32.078;34.818;2022-12-18T04:05:19;23.70;35.50
23618;DHT22;18207;32.078;34.818;2022-12-18T04:07:52;23.70;35.50
23618;DHT22;18207;32.078;34.818;2022-12-18T04:10:24;23.70;35.50
23618;DHT22;18207;32.078;34.818;2022-12-18T04:12:56;23.60;35.50
23618;DHT22;18207;32.078;34.818;2022-12-18T04:15:28;23.60;35.50
23618;DHT22;18207;32.078;34.818;2022-12-18T04:18:00;23.60;35.50
23618;DHT22;18207;32.078;34.818;2022-12-18T04:20:31;23.60;35.50
23618;DHT22;18207;32.078;34.818;2022-12-18T04:23:01;23.70;35.70
23618;DHT22;18207;32.078;34.818;2022-12-18T04:25:31;23.70;35.70
23618;DHT22;18207;32.078;34.818;2022-12-18T04:28:02;23.60;35.60
23618;DHT22;18207;32.078;34.818;2022-12-18T04:30:32;23.70;35.70
23618;DHT22;18207;32.078;34.818;2022-12-18T04:33:07;23.70;35.70
23618;DHT22;18207;32.078;34.818;2022-12-18T04:35:38;23.70;35.60
23618;DHT22;18207;32.078;34.818;2022-12-18T04:38:09;23.70;35.50
23618;DHT22;18207;32.078;34.818;2022-12-18T04:40:39;23.70;35.60
23618;DHT22;18207;32.078;34.818;2022-12-18T04:43:09;23.70;35.50
23618;DHT22;18207;32.078;34.818;2022-12-18T04:45:39;23.70;35.50
23618;DHT22;18207;32.078;34.818;2022-12-18T04:48:11;23.70;35.50
23618;DHT22;18207;32.078;34.818;2022-12-18T04:50:42;23.70;35.50
23618;DHT22;18207;32.078;34.818;2022-12-18T04:53:12;23.60;35.40
23618;DHT22;18207;32.078;34.818;2022-12-18T04:55:42;23.70;35.50
23618;DHT22;18207;32.078;34.818;2022-12-18T04:58:13;23.70;35.50
23618;DHT22;18207;32.078;34.818;2022-12-18T05:00:43;23.70;35.50
23618;DHT22;18207;32.078;34.818;2022-12-18T05:03:15;23.70;35.50
23618;DHT22;18207;32.078;34.818;2022-12-18T05:05:45;23.70;35.50
23618;DHT22;18207;32.078;34.818;2022-12-18T05:08:19;23.70;35.50
23618;DHT22;18207;32.078;34.818;2022-12-18T05:10:49;23.60;35.40
23618;DHT22;18207;32.078;34.818;2022-12-18T05:13:19;23.70;35.50
23618;DHT22;18207;32.078;34.818;2022-12-18T05:15:51;23.60;35.40
23618;DHT22;18207;32.078;34.818;2022-12-18T05:18:24;23.60;35.40
23618;DHT22;18207;32.078;34.818;2022-12-18T05:20:55;23.70;35.50
23618;DHT22;18207;32.078;34.818;2022-12-18T05:23:25;23.60;35.50
23618;DHT22;18207;32.078;34.818;2022-12-18T05:25:57;23.60;35.50
23618;DHT22;18207;32.078;34.818;2022-12-18T05:28:30;23.70;35.60
23618;DHT22;18207;32.078;34.818;2022-12-18T05:31:02;23.70;35.70
23618;DHT22;18207;32.078;34.818;2022-12-18T05:33:35;23.70;35.70
23618;DHT22;18207;32.078;34.818;2022-12-18T05:36:07;23.70;35.70
23618;DHT22;18207;32.078;34.818;2022-12-18T05:38:39;23.70;35.80
23618;DHT22;18207;32.078;34.818;2022-12-18T05:41:09;23.80;35.90
23618;DHT22;18207;32.078;34.818;2022-12-18T05:43:40;23.80;35.90
23618;DHT22;18207;32.078;34.818;2022-12-18T05:46:14;23.90;35.90
23618;DHT22;18207;32.078;34.818;2022-12-18T05:48:47;23.80;35.80
23618;DHT22;18207;32.078;34.818;2022-12-18T05:51:20;23.90;35.90
23618;DHT22;18207;32.078;34.818;2022-12-18T05:53:51;23.90;35.90
23618;DHT22;18207;32.078;34.818;2022-12-18T05:56:22;23.90;35.90
23618;DHT22;18207;32.078;34.818;2022-12-18T05:58:53;24.00;36.00
23618;DHT22;18207;32.078;34.818;2022-12-18T06:01:25;24.00;36.00
23618;DHT22;18207;32.078;34.818;2022-12-18T06:03:59;24.00;36.00
23618;DHT22;18207;32.078;34.818;2022-12-18T06:06:30;24.00;36.00
23618;DHT22;18207;32.078;34.818;2022-12-18T06:09:00;24.10;36.10
23618;DHT22;18207;32.078;34.818;2022-12-18T06:11:36;24.10;36.10
23618;DHT22;18207;32.078;34.818;2022-12-18T06:14:07;24.20;36.40
23618;DHT22;18207;32.078;34.818;2022-12-18T06:16:38;24.30;36.70
23618;DHT22;18207;32.078;34.818;2022-12-18T06:19:15;24.40;36.90
23618;DHT22;18207;32.078;34.818;2022-12-18T06:21:46;24.70;37.40
23618;DHT22;18207;32.078;34.818;2022-12-18T06:24:16;25.00;37.80
23618;DHT22;18207;32.078;34.818;2022-12-18T06:26:47;25.30;37.80
23618;DHT22;18207;32.078;34.818;2022-12-18T06:29:16;25.70;37.90
23618;DHT22;18207;32.078;34.818;2022-12-18T06:31:47;26.10;37.80
23618;DHT22;18207;32.078;34.818;2022-12-18T06:34:18;26.50;37.80
23618;DHT22;18207;32.078;34.818;2022-12-18T06:36:48;26.90;37.70
23618;DHT22;18207;32.078;34.818;2022-12-18T06:39:19;27.30;37.50
23618;DHT22;18207;32.078;34.818;2022-12-18T06:41:49;27.70;37.30
23618;DHT22;18207;32.078;34.818;2022-12-18T06:44:19;28.10;37.00
23618;DHT22;18207;32.078;34.818;2022-12-18T06:46:50;28.50;36.80
23618;DHT22;18207;32.078;34.818;2022-12-18T06:49:21;28.90;36.60
23618;DHT22;18207;32.078;34.818;2022-12-18T06:51:56;29.20;36.30
23618;DHT22;18207;32.078;34.818;2022-12-18T06:54:26;29.60;36.00
23618;DHT22;18207;32.078;34.818;2022-12-18T06:56:56;29.90;35.70
23618;DHT22;18207;32.078;34.818;2022-12-18T06:59:27;30.20;35.30
23618;DHT22;18207;32.078;34.818;2022-12-18T07:01:57;30.50;35.20
23618;DHT22;18207;32.078;34.818;2022-12-18T07:04:30;30.80;34.90
23618;DHT22;18207;32.078;34.818;2022-12-18T07:07:01;31.10;34.60
23618;DHT22;18207;32.078;34.818;2022-12-18T07:09:31;31.40;34.40
23618;DHT22;18207;32.078;34.818;2022-12-18T07:12:01;31.70;34.30
23618;DHT22;18207;32.078;34.818;2022-12-18T07:14:32;32.00;33.90
23618;DHT22;18207;32.078;34.818;2022-12-18T07:17:02;32.30;33.70
23618;DHT22;18207;32.078;34.818;2022-12-18T07:19:34;32.50;33.50
23618;DHT22;18207;32.078;34.818;2022-12-18T07:22:05;32.70;33.10
23618;DHT22;18207;32.078;34.818;2022-12-18T07:24:35;33.10;33.00
23618;DHT22;18207;32.078;34.818;2022-12-18T07:27:05;33.20;32.70
23618;DHT22;18207;32.078;34.818;2022-12-18T07:29:36;33.60;32.60
23618;DHT22;18207;32.078;34.818;2022-12-18T07:32:06;33.80;32.30
23618;DHT22;18207;32.078;34.818;2022-12-18T07:34:38;34.00;32.10
23618;DHT22;18207;32.078;34.818;2022-12-18T07:37:09;34.30;31.90
23618;DHT22;18207;32.078;34.818;2022-12-18T07:39:39;34.60;31.80
23618;DHT22;18207;32.078;34.818;2022-12-18T07:42:09;34.80;31.70
23618;DHT22;18207;32.078;34.818;2022-12-18T07:44:56;35.10;31.50
23618;DHT22;18207;32.078;34.818;2022-12-18T07:47:27;35.40;31.20
23618;DHT22;18207;32.078;34.818;2022-12-18T07:50:04;35.70;31.10
23618;DHT22;18207;32.078;34.818;2022-12-18T07:52:35;36.00;31.50
23618;DHT22;18207;32.078;34.818;2022-12-18T07:55:06;36.30;30.40
23618;DHT22;18207;32.078;34.818;2022-12-18T07:57:36;36.50;30.10
23618;DHT22;18207;32.078;34.818;2022-12-18T08:00:26;36.80;30.00
23618;DHT22;18207;32.078;34.818;2022-12-18T08:02:57;37.00;29.60
23618;DHT22;18207;32.078;34.818;2022-12-18T08:05:29;37.30;29.40
23618;DHT22;18207;32.078;34.818;2022-12-18T08:07:59;37.50;29.20
23618;DHT22;18207;32.078;34.818;2022-12-18T08:10:30;37.70;29.10
23618;DHT22;18207;32.078;34.818;2022-12-18T08:13:00;38.00;29.20
23618;DHT22;18207;32.078;34.818;2022-12-18T08:15:31;38.30;29.10
23618;DHT22;18207;32.078;34.818;2022-12-18T08:18:02;38.60;29.00
23618;DHT22;18207;32.078;34.818;2022-12-18T08:20:45;38.90;28.90
23618;DHT22;18207;32.078;34.818;2022-12-18T08:23:15;39.20;28.60
23618;DHT22;18207;32.078;34.818;2022-12-18T08:25:46;39.50;28.30
23618;DHT22;18207;32.078;34.818;2022-12-18T08:28:17;39.80;28.10
23618;DHT22;18207;32.078;34.818;2022-12-18T08:30:52;40.00;27.90
23618;DHT22;18207;32.078;34.818;2022-12-18T08:33:21;40.20;27.60
23618;DHT22;18207;32.078;34.818;2022-12-18T08:35:53;40.40;27.70
23618;DHT22;18207;32.078;34.818;2022-12-18T08:38:23;40.60;27.20
23618;DHT22;18207;32.078;34.818;2022-12-18T08:40:58;40.70;26.90
23618;DHT22;18207;32.078;34.818;2022-12-18T08:43:29;40.80;26.60
23618;DHT22;18207;32.078;34.818;2022-12-18T08:46:19;40.90;26.50
23618;DHT22;18207;32.078;34.818;2022-12-18T08:48:51;40.80;25.80
23618;DHT22;18207;32.078;34.818;2022-12-18T08:51:24;40.60;25.30
23618;DHT22;18207;32.078;34.818;2022-12-18T08:53:54;40.20;24.80
23618;DHT22;18207;32.078;34.818;2022-12-18T08:56:25;39.80;24.50
23618;DHT22;18207;32.078;34.818;2022-12-18T08:58:55;39.40;24.40
23618;DHT22;18207;32.078;34.818;2022-12-18T09:01:26;38.90;24.10
23618;DHT22;18207;32.078;34.818;2022-12-18T09:03:58;38.40;24.00
23618;DHT22;18207;32.078;34.818;2022-12-18T09:06:30;37.90;23.80
23618;DHT22;18207;32.078;34.818;2022-12-18T09:09:01;37.40;23.90
23618;DHT22;18207;32.078;34.818;2022-12-18T09:11:33;36.90;23.90
23618;DHT22;18207;32.078;34.818;2022-12-18T09:14:03;36.50;23.80
23618;DHT22;18207;32.078;34.818;2022-12-18T09:16:33;36.00;23.90
23618;DHT22;18207;32.078;34.818;2022-12-18T09:19:04;35.60;24.00
23618;DHT22;18207;32.078;34.818;2022-12-18T09:21:39;35.20;24.10
23618;DHT22;18207;32.078;34.818;2022-12-18T09:24:15;34.90;24.30
23618;DHT22;18207;32.078;34.818;2022-12-18T09:26:45;34.60;24.40
23618;DHT22;18207;32.078;34.818;2022-12-18T09:29:16;34.30;24.40
23618;DHT22;18207;32.078;34.818;2022-12-18T09:31:47;34.10;24.60
23618;DHT22;18207;32.078;34.818;2022-12-18T09:34:17;33.90;25.30
23618;DHT22;18207;32.078;34.818;2022-12-18T09:36:51;33.80;25.10
23618;DHT22;18207;32.078;34.818;2022-12-18T09:39:21;33.70;25.30
23618;DHT22;18207;32.078;34.818;2022-12-18T09:41:54;33.70;25.90
23618;DHT22;18207;32.078;34.818;2022-12-18T09:44:28;33.60;25.30
23618;DHT22;18207;32.078;34.818;2022-12-18T09:47:10;33.50;25.20
23618;DHT22;18207;32.078;34.818;2022-12-18T09:49:46;33.40;25.00
23618;DHT22;18207;32.078;34.818;2022-12-18T09:52:25;33.20;24.90
23618;DHT22;18207;32.078;34.818;2022-12-18T09:55:02;33.00;24.80
23618;DHT22;18207;32.078;34.818;2022-12-18T09:57:40;32.80;24.80
23618;DHT22;18207;32.078;34.818;2022-12-18T10:00:19;32.60;24.80
23618;DHT22;18207;32.078;34.818;2022-12-18T10:02:53;32.40;24.80
23618;DHT22;18207;32.078;34.818;2022-12-18T10:05:37;32.20;24.90
23618;DHT22;18207;32.078;34.818;2022-12-18T10:08:18;32.00;24.90
23618;DHT22;18207;32.078;34.818;2022-12-18T10:10:59;31.80;25.10
23618;DHT22;18207;32.078;34.818;2022-12-18T10:13:44;31.60;25.00
23618;DHT22;18207;32.078;34.818;2022-12-18T10:16:27;31.50;24.90
23618;DHT22;18207;32.078;34.818;2022-12-18T10:19:19;31.30;25.00
23618;DHT22;18207;32.078;34.818;2022-12-18T10:22:11;31.20;25.20
23618;DHT22;18207;32.078;34.818;2022-12-18T10:25:05;31.10;25.30
23618;DHT22;18207;32.078;34.818;2022-12-18T10:27:52;31.00;25.40
23618;DHT22;18207;32.078;34.818;2022-12-18T10:30:26;30.80;25.90
23618;DHT22;18207;32.078;34.818;2022-12-18T10:33:00;30.70;25.50
23618;DHT22;18207;32.078;34.818;2022-12-18T10:35:32;30.60;25.50
23618;DHT22;18207;32.078;34.818;2022-12-18T10:38:07;30.60;25.60
23618;DHT22;18207;32.078;34.818;2022-12-18T10:40:56;30.50;25.60
23618;DHT22;18207;32.078;34.818;2022-12-18T10:43:28;30.40;25.60
23618;DHT22;18207;32.078;34.818;2022-12-18T10:46:07;30.30;25.60
23618;DHT22;18207;32.078;34.818;2022-12-18T10:48:53;30.20;25.60
23618;DHT22;18207;32.078;34.818;2022-12-18T10:51:27;30.10;25.50
23618;DHT22;18207;32.078;34.818;2022-12-18T10:54:02;30.10;25.70
23618;DHT22;18207;32.078;34.818;2022-12-18T10:56:37;30.00;25.60
23618;DHT22;18207;32.078;34.818;2022-12-18T10:59:15;30.00;25.70
23618;DHT22;18207;32.078;34.818;2022-12-18T11:01:49;29.90;25.70
23618;DHT22;18207;32.078;34.818;2022-12-18T11:04:23;29.80;25.70
23618;DHT22;18207;32.078;34.818;2022-12-18T11:06:59;29.80;25.70
23618;DHT22;18207;32.078;34.818;2022-12-18T11:09:31;29.70;25.80
23618;DHT22;18207;32.078;34.818;2022-12-18T11:12:18;29.70;25.80
23618;DHT22;18207;32.078;34.818;2022-12-18T11:14:52;29.60;25.80
23618;DHT22;18207;32.078;34.818;2022-12-18T11:17:28;29.60;25.90
23618;DHT22;18207;32.078;34.818;2022-12-18T11:20:02;29.50;25.90
23618;DHT22;18207;32.078;34.818;2022-12-18T11:22:36;29.50;25.90
23618;DHT22;18207;32.078;34.818;2022-12-18T11:25:18;29.50;26.00
23618;DHT22;18207;32.078;34.818;2022-12-18T11:28:04;29.40;26.00
23618;DHT22;18207;32.078;34.818;2022-12-18T11:31:17;29.40;26.00
23618;DHT22;18207;32.078;34.818;2022-12-18T11:33:54;29.40;26.10
23618;DHT22;18207;32.078;34.818;2022-12-18T11:36:49;29.40;26.10
23618;DHT22;18207;32.078;34.818;2022-12-18T11:39:28;29.30;26.10
23618;DHT22;18207;32.078;34.818;2022-12-18T11:42:09;29.30;26.10
23618;DHT22;18207;32.078;34.818;2022-12-18T11:44:50;29.30;26.20
23618;DHT22;18207;32.078;34.818;2022-12-18T11:47:29;29.30;26.20
23618;DHT22;18207;32.078;34.818;2022-12-18T11:50:17;29.20;26.20
23618;DHT22;18207;32.078;34.818;2022-12-18T11:52:51;29.20;26.20
23618;DHT22;18207;32.078;34.818;2022-12-18T11:55:37;29.20;26.30
23618;DHT22;18207;32.078;34.818;2022-12-18T11:58:18;29.10;26.20
23618;DHT22;18207;32.078;34.818;2022-12-18T12:01:10;29.10;26.30
23618;DHT22;18207;32.078;34.818;2022-12-18T12:04:09;29.10;26.30
23618;DHT22;18207;32.078;34.818;2022-12-18T12:07:05;29.00;26.30
23618;DHT22;18207;32.078;34.818;2022-12-18T12:09:55;29.00;26.30
23618;DHT22;18207;32.078;34.818;2022-12-18T12:12:39;29.00;26.30
23618;DHT22;18207;32.078;34.818;2022-12-18T12:15:29;29.00;26.40
23618;DHT22;18207;32.078;34.818;2022-12-18T12:18:29;29.00;26.40
23618;DHT22;18207;32.078;34.818;2022-12-18T12:21:16;28.90;26.40
23618;DHT22;18207;32.078;34.818;2022-12-18T12:23:58;28.90;26.40
23618;DHT22;18207;32.078;34.818;2022-12-18T12:26:42;28.90;26.50
23618;DHT22;18207;32.078;34.818;2022-12-18T12:29:29;28.90;26.50
23618;DHT22;18207;32.078;34.818;2022-12-18T12:32:20;28.90;26.50
23618;DHT22;18207;32.078;34.818;2022-12-18T12:35:11;28.90;26.50
23618;DHT22;18207;32.078;34.818;2022-12-18T12:38:00;28.90;26.50
23618;DHT22;18207;32.078;34.818;2022-12-18T12:40:40;28.80;26.50
23618;DHT22;18207;32.078;34.818;2022-12-18T12:43:28;28.80;26.50
23618;DHT22;18207;32.078;34.818;2022-12-18T12:46:06;28.80;26.50
23618;DHT22;18207;32.078;34.818;2022-12-18T12:48:42;28.80;26.50
23618;DHT22;18207;32.078;34.818;2022-12-18T12:51:20;28.80;26.60
23618;DHT22;18207;32.078;34.818;2022-12-18T12:53:54;28.70;26.60
23618;DHT22;18207;32.078;34.818;2022-12-18T12:56:37;28.70;26.60
23618;DHT22;18207;32.078;34.818;2022-12-18T12:59:19;28.70;26.60
23618;DHT22;18207;32.078;34.818;2022-12-18T13:02:04;28.70;26.60
23618;DHT22;18207;32.078;34.818;2022-12-18T13:04:48;28.70;26.60
23618;DHT22;18207;32.078;34.818;2022-12-18T13:07:29;28.70;27.10
23618;DHT22;18207;32.078;34.818;2022-12-18T13:10:22;28.60;26.60
23618;DHT22;18207;32.078;34.818;2022-12-18T13:12:56;28.60;26.70
23618;DHT22;18207;32.078;34.818;2022-12-18T13:15:38;28.60;26.60
23618;DHT22;18207;32.078;34.818;2022-12-18T13:18:17;28.60;26.60
23618;DHT22;18207;32.078;34.818;2022-12-18T13:20:53;28.60;26.70
23618;DHT22;18207;32.078;34.818;2022-12-18T13:23:50;28.50;26.70
23618;DHT22;18207;32.078;34.818;2022-12-18T13:26:31;28.60;26.70
23618;DHT22;18207;32.078;34.818;2022-12-18T13:29:03;28.50;26.70
23618;DHT22;18207;32.078;34.818;2022-12-18T13:34:34;28.50;26.70
23618;DHT22;18207;32.078;34.818;2022-12-18T13:37:43;28.50;26.70
23618;DHT22;18207;32.078;34.818;2022-12-18T13:43:43;28.40;26.70
23618;DHT22;18207;32.078;34.818;2022-12-18T13:46:21;28.40;26.80
23618;DHT22;18207;32.078;34.818;2022-12-18T13:49:00;28.40;26.80
23618;DHT22;18207;32.078;34.818;2022-12-18T13:51:34;28.40;26.80
23618;DHT22;18207;32.078;34.818;2022-12-18T13:54:17;28.40;26.90
23618;DHT22;18207;32.078;34.818;2022-12-18T13:56:52;28.30;26.80
23618;DHT22;18207;32.078;34.818;2022-12-18T13:59:25;28.30;26.90
23618;DHT22;18207;32.078;34.818;2022-12-18T14:01:57;28.30;26.90
23618;DHT22;18207;32.078;34.818;2022-12-18T14:04:31;28.30;26.90
23618;DHT22;18207;32.078;34.818;2022-12-18T14:07:05;28.30;26.90
23618;DHT22;18207;32.078;34.818;2022-12-18T14:09:43;28.20;26.90
23618;DHT22;18207;32.078;34.818;2022-12-18T14:12:21;28.30;27.00
23618;DHT22;18207;32.078;34.818;2022-12-18T14:15:22;28.30;27.00
23618;DHT22;18207;32.078;34.818;2022-12-18T14:18:20;28.20;27.10
23618;DHT22;18207;32.078;34.818;2022-12-18T14:20:55;28.20;27.10
23618;DHT22;18207;32.078;34.818;2022-12-18T14:23:30;28.20;27.20
23618;DHT22;18207;32.078;34.818;2022-12-18T14:26:03;28.20;27.30
23618;DHT22;18207;32.078;34.818;2022-12-18T14:28:51;28.20;27.30
23618;DHT22;18207;32.078;34.818;2022-12-18T14:31:23;28.20;27.30
23618;DHT22;18207;32.078;34.818;2022-12-18T14:33:54;28.20;27.80
23618;DHT22;18207;32.078;34.818;2022-12-18T14:36:27;28.20;27.30
23618;DHT22;18207;32.078;34.818;2022-12-18T14:38:59;28.10;27.30
23618;DHT22;18207;32.078;34.818;2022-12-18T14:41:28;28.10;27.30
23618;DHT22;18207;32.078;34.818;2022-12-18T14:44:07;28.10;27.40
23618;DHT22;18207;32.078;34.818;2022-12-18T14:46:43;28.10;27.40
23618;DHT22;18207;32.078;34.818;2022-12-18T14:49:24;28.00;27.40
23618;DHT22;18207;32.078;34.818;2022-12-18T14:51:59;28.00;27.50
23618;DHT22;18207;32.078;34.818;2022-12-18T14:54:31;28.00;27.50
23618;DHT22;18207;32.078;34.818;2022-12-18T14:57:06;28.00;27.60
23618;DHT22;18207;32.078;34.818;2022-12-18T14:59:52;28.00;27.70
23618;DHT22;18207;32.078;34.818;2022-12-18T15:02:35;28.00;27.70
23618;DHT22;18207;32.078;34.818;2022-12-18T15:05:17;28.00;27.70
23618;DHT22;18207;32.078;34.818;2022-12-18T15:07:50;28.00;27.70
23618;DHT22;18207;32.078;34.818;2022-12-18T15:10:23;27.90;27.70
23618;DHT22;18207;32.078;34.818;2022-12-18T15:13:08;27.90;27.70
23618;DHT22;18207;32.078;34.818;2022-12-18T15:15:48;27.90;27.80
23618;DHT22;18207;32.078;34.818;2022-12-18T15:18:20;27.90;27.80
23618;DHT22;18207;32.078;34.818;2022-12-18T15:21:07;27.90;27.80
23618;DHT22;18207;32.078;34.818;2022-12-18T15:23:46;27.80;27.70
23618;DHT22;18207;32.078;34.818;2022-12-18T15:26:19;27.80;27.80
23618;DHT22;18207;32.078;34.818;2022-12-18T15:28:52;27.80;27.80
23618;DHT22;18207;32.078;34.818;2022-12-18T15:31:29;27.80;27.80
23618;DHT22;18207;32.078;34.818;2022-12-18T15:34:13;27.70;27.90
23618;DHT22;18207;32.078;34.818;2022-12-18T15:36:49;27.70;27.90
23618;DHT22;18207;32.078;34.818;2022-12-18T15:39:19;27.70;27.90
23618;DHT22;18207;32.078;34.818;2022-12-18T15:41:50;27.70;27.90
23618;DHT22;18207;32.078;34.818;2022-12-18T15:44:37;27.70;28.00
23618;DHT22;18207;32.078;34.818;2022-12-18T15:47:13;27.70;28.00
23618;DHT22;18207;32.078;34.818;2022-12-18T15:49:46;27.60;28.00
23618;DHT22;18207;32.078;34.818;2022-12-18T15:52:27;27.60;28.00
23618;DHT22;18207;32.078;34.818;2022-12-18T15:54:57;27.60;28.00
23618;DHT22;18207;32.078;34.818;2022-12-18T15:57:44;27.60;28.00
23618;DHT22;18207;32.078;34.818;2022-12-18T16:00:15;27.50;28.00
23618;DHT22;18207;32.078;34.818;2022-12-18T16:02:48;27.50;28.00
23618;DHT22;18207;32.078;34.818;2022-12-18T16:05:20;27.50;28.00
23618;DHT22;18207;32.078;34.818;2022-12-18T16:07:51;27.50;28.10
23618;DHT22;18207;32.078;34.818;2022-12-18T16:10:21;27.50;28.10
23618;DHT22;18207;32.078;34.818;2022-12-18T16:12:53;27.40;28.10
23618;DHT22;18207;32.078;34.818;2022-12-18T16:15:23;27.40;28.10